sensor_id;sensor_type;location;lat;lon;timestamp;pressure;altitude;pressure_sealevel;temperature;humidity
32237;BME280;18726;44.732;10.550;2023-04-22T00:03:01;100991.19;;;13.11;100.00
32237;BME280;18726;44.732;10.550;2023-04-22T00:06:05;100984.06;;;13.06;100.00
32237;BME280;18726;44.732;10.550;2023-04-22T00:09:08;100990.75;;;13.09;100.00
32237;BME280;18726;44.732;10.550;2023-04-22T00:12:12;100995.75;;;13.07;100.00
32237;BME280;18726;44.732;10.550;2023-04-22T00:15:16;100992.16;;;13.03;100.00
32237;BME280;18726;44.732;10.550;2023-04-22T00:18:23;100989.38;;;12.99;100.00
32237;BME280;18726;44.732;10.550;2023-04-22T00:21:26;100989.28;;;12.96;100.00
32237;BME280;18726;44.732;10.550;2023-04-22T00:24:30;100989.78;;;13.01;100.00
32237;BME280;18726;44.732;10.550;2023-04-22T00:27:34;100989.44;;;13.03;100.00
32237;BME280;18726;44.732;10.550;2023-04-22T00:30:38;100989.38;;;12.99;100.00
32237;BME280;18726;44.732;10.550;2023-04-22T00:33:41;100994.75;;;12.96;100.00
32237;BME280;18726;44.732;10.550;2023-04-22T00:36:44;100991.94;;;12.92;100.00
32237;BME280;18726;44.732;10.550;2023-04-22T00:39:48;100993.78;;;12.88;100.00
32237;BME280;18726;44.732;10.550;2023-04-22T00:42:52;100996.84;;;12.87;100.00
32237;BME280;18726;44.732;10.550;2023-04-22T00:45:56;101006.19;;;12.85;100.00
32237;BME280;18726;44.732;10.550;2023-04-22T00:48:59;101007.59;;;12.79;100.00
32237;BME280;18726;44.732;10.550;2023-04-22T00:52:03;101008.28;;;12.76;100.00
32237;BME280;18726;44.732;10.550;2023-04-22T00:55:07;101000.31;;;12.68;100.00
32237;BME280;18726;44.732;10.550;2023-04-22T00:58:10;101008.31;;;12.61;100.00
32237;BME280;18726;44.732;10.550;2023-04-22T01:01:13;100996.25;;;12.62;100.00
32237;BME280;18726;44.732;10.550;2023-04-22T01:04:17;100993.88;;;12.60;100.00
32237;BME280;18726;44.732;10.550;2023-04-22T01:07:21;100996.09;;;12.70;100.00
32237;BME280;18726;44.732;10.550;2023-04-22T01:10:25;101007.69;;;12.83;100.00
32237;BME280;18726;44.732;10.550;2023-04-22T01:13:29;101000.56;;;12.78;100.00
32237;BME280;18726;44.732;10.550;2023-04-22T01:16:32;101003.47;;;12.70;100.00
32237;BME280;18726;44.732;10.550;2023-04-22T01:19:38;100992.94;;;12.68;100.00
32237;BME280;18726;44.732;10.550;2023-04-22T01:22:43;100991.06;;;12.72;100.00
32237;BME280;18726;44.732;10.550;2023-04-22T01:25:47;100979.09;;;12.77;100.00
32237;BME280;18726;44.732;10.550;2023-04-22T01:28:50;100993.69;;;12.84;100.00
32237;BME280;18726;44.732;10.550;2023-04-22T01:31:54;100987.38;;;12.80;100.00
32237;BME280;18726;44.732;10.550;2023-04-22T01:34:58;100989.81;;;12.85;100.00
32237;BME280;18726;44.732;10.550;2023-04-22T01:38:05;100989.00;;;13.01;100.00
32237;BME280;18726;44.732;10.550;2023-04-22T01:41:09;100985.72;;;13.11;100.00
32237;BME280;18726;44.732;10.550;2023-04-22T01:44:13;100993.47;;;13.09;100.00
32237;BME280;18726;44.732;10.550;2023-04-22T01:47:16;100994.03;;;12.99;100.00
32237;BME280;18726;44.732;10.550;2023-04-22T01:50:20;101002.56;;;12.81;100.00
32237;BME280;18726;44.732;10.550;2023-04-22T01:53:24;101005.81;;;12.71;100.00
32237;BME280;18726;44.732;10.550;2023-04-22T01:56:28;101000.22;;;12.64;100.00
32237;BME280;18726;44.732;10.550;2023-04-22T01:59:32;100996.09;;;12.55;100.00
32237;BME280;18726;44.732;10.550;2023-04-22T02:02:36;100998.97;;;12.46;100.00
32237;BME280;18726;44.732;10.550;2023-04-22T02:05:39;100990.91;;;12.34;100.00
32237;BME280;18726;44.732;10.550;2023-04-22T02:08:42;100997.75;;;12.28;100.00
32237;BME280;18726;44.732;10.550;2023-04-22T02:11:45;101004.97;;;12.36;100.00
32237;BME280;18726;44.732;10.550;2023-04-22T02:14:49;100999.50;;;12.36;100.00
32237;BME280;18726;44.732;10.550;2023-04-22T02:17:54;100998.38;;;12.37;100.00
32237;BME280;18726;44.732;10.550;2023-04-22T02:20:57;101002.03;;;12.29;100.00
32237;BME280;18726;44.732;10.550;2023-04-22T02:24:01;100995.72;;;12.25;100.00
32237;BME280;18726;44.732;10.550;2023-04-22T02:27:05;100997.75;;;12.28;100.00
32237;BME280;18726;44.732;10.550;2023-04-22T02:30:11;100997.22;;;12.38;100.00
32237;BME280;18726;44.732;10.550;2023-04-22T02:33:14;101003.47;;;12.38;100.00
32237;BME280;18726;44.732;10.550;2023-04-22T02:36:17;100999.66;;;12.43;100.00
32237;BME280;18726;44.732;10.550;2023-04-22T02:39:22;100995.09;;;12.47;100.00
32237;BME280;18726;44.732;10.550;2023-04-22T02:42:25;100998.81;;;12.39;100.00
32237;BME280;18726;44.732;10.550;2023-04-22T02:45:28;100986.13;;;12.46;100.00
32237;BME280;18726;44.732;10.550;2023-04-22T02:48:32;100982.63;;;12.46;100.00
32237;BME280;18726;44.732;10.550;2023-04-22T02:51:39;100984.31;;;12.50;100.00
32237;BME280;18726;44.732;10.550;2023-04-22T02:54:42;100978.41;;;12.48;100.00
32237;BME280;18726;44.732;10.550;2023-04-22T02:57:45;100980.34;;;12.48;100.00
32237;BME280;18726;44.732;10.550;2023-04-22T03:00:49;100981.22;;;12.52;100.00
32237;BME280;18726;44.732;10.550;2023-04-22T03:03:52;100975.25;;;12.46;100.00
32237;BME280;18726;44.732;10.550;2023-04-22T03:06:59;100975.44;;;12.38;100.00
32237;BME280;18726;44.732;10.550;2023-04-22T03:10:03;100982.97;;;12.29;100.00
32237;BME280;18726;44.732;10.550;2023-04-22T03:13:06;100979.38;;;12.25;100.00
32237;BME280;18726;44.732;10.550;2023-04-22T03:16:09;100985.84;;;12.20;100.00
32237;BME280;18726;44.732;10.550;2023-04-22T03:19:14;100973.47;;;12.23;100.00
32237;BME280;18726;44.732;10.550;2023-04-22T03:22:18;100974.19;;;12.20;100.00
32237;BME280;18726;44.732;10.550;2023-04-22T03:25:22;100973.22;;;12.28;100.00
32237;BME280;18726;44.732;10.550;2023-04-22T03:28:29;100973.47;;;12.23;100.00
32237;BME280;18726;44.732;10.550;2023-04-22T03:31:32;100972.50;;;12.15;100.00
32237;BME280;18726;44.732;10.550;2023-04-22T03:34:35;100976.53;;;12.05;100.00
32237;BME280;18726;44.732;10.550;2023-04-22T03:37:39;100982.94;;;11.97;100.00
32237;BME280;18726;44.732;10.550;2023-04-22T03:40:44;100982.03;;;11.93;100.00
32237;BME280;18726;44.732;10.550;2023-04-22T03:43:57;100977.53;;;11.85;100.00
32237;BME280;18726;44.732;10.550;2023-04-22T03:47:01;100981.84;;;11.86;100.00
32237;BME280;18726;44.732;10.550;2023-04-22T03:50:10;100986.88;;;12.00;100.00
32237;BME280;18726;44.732;10.550;2023-04-22T03:53:13;100983.31;;;12.11;100.00
32237;BME280;18726;44.732;10.550;2023-04-22T03:56:16;100993.50;;;12.14;100.00
32237;BME280;18726;44.732;10.550;2023-04-22T03:59:22;100988.94;;;12.18;100.00
32237;BME280;18726;44.732;10.550;2023-04-22T04:02:26;100987.63;;;12.12;100.00
32237;BME280;18726;44.732;10.550;2023-04-22T04:05:30;100985.59;;;12.09;100.00
32237;BME280;18726;44.732;10.550;2023-04-22T04:08:34;100995.59;;;12.05;100.00
32237;BME280;18726;44.732;10.550;2023-04-22T04:11:37;100990.16;;;12.05;100.00
32237;BME280;18726;44.732;10.550;2023-04-22T04:14:41;100994.22;;;12.11;100.00
32237;BME280;18726;44.732;10.550;2023-04-22T04:17:46;100994.31;;;12.31;100.00
32237;BME280;18726;44.732;10.550;2023-04-22T04:20:51;100991.88;;;12.41;100.00
32237;BME280;18726;44.732;10.550;2023-04-22T04:23:55;101000.03;;;12.26;100.00
32237;BME280;18726;44.732;10.550;2023-04-22T04:27:03;100999.41;;;12.32;100.00
32237;BME280;18726;44.732;10.550;2023-04-22T04:30:14;100998.38;;;12.37;100.00
32237;BME280;18726;44.732;10.550;2023-04-22T04:33:23;101005.13;;;12.43;100.00
32237;BME280;18726;44.732;10.550;2023-04-22T04:36:27;101006.00;;;12.47;100.00
32237;BME280;18726;44.732;10.550;2023-04-22T04:39:34;100997.22;;;12.54;100.00
32237;BME280;18726;44.732;10.550;2023-04-22T04:42:39;101013.75;;;12.61;100.00
32237;BME280;18726;44.732;10.550;2023-04-22T04:45:48;101007.00;;;12.70;100.00
32237;BME280;18726;44.732;10.550;2023-04-22T04:48:52;101015.31;;;12.77;100.00
32237;BME280;18726;44.732;10.550;2023-04-22T04:51:56;101009.53;;;12.95;100.00
32237;BME280;18726;44.732;10.550;2023-04-22T04:55:01;101009.75;;;13.21;100.00
32237;BME280;18726;44.732;10.550;2023-04-22T04:58:06;101021.31;;;13.34;100.00
32237;BME280;18726;44.732;10.550;2023-04-22T05:01:09;101020.00;;;13.43;100.00
32237;BME280;18726;44.732;10.550;2023-04-22T05:04:12;101013.81;;;13.46;100.00
32237;BME280;18726;44.732;10.550;2023-04-22T05:07:17;101019.78;;;13.52;100.00
32237;BME280;18726;44.732;10.550;2023-04-22T05:10:22;101020.28;;;13.96;100.00
32237;BME280;18726;44.732;10.550;2023-04-22T05:13:25;101027.28;;;14.81;100.00
32237;BME280;18726;44.732;10.550;2023-04-22T05:16:31;101031.13;;;15.26;100.00
32237;BME280;18726;44.732;10.550;2023-04-22T05:19:35;101030.06;;;15.64;100.00
32237;BME280;18726;44.732;10.550;2023-04-22T05:22:38;101040.59;;;15.92;100.00
32237;BME280;18726;44.732;10.550;2023-04-22T05:25:45;101053.66;;;17.38;100.00
32237;BME280;18726;44.732;10.550;2023-04-22T05:28:51;101057.72;;;18.84;100.00
32237;BME280;18726;44.732;10.550;2023-04-22T05:31:56;101056.41;;;19.71;94.69
32237;BME280;18726;44.732;10.550;2023-04-22T05:34:59;101065.88;;;21.02;87.33
32237;BME280;18726;44.732;10.550;2023-04-22T05:38:02;101072.31;;;21.67;78.13
32237;BME280;18726;44.732;10.550;2023-04-22T05:41:07;101077.34;;;21.41;78.61
32237;BME280;18726;44.732;10.550;2023-04-22T05:44:12;101066.28;;;22.40;75.42
32237;BME280;18726;44.732;10.550;2023-04-22T05:47:16;101074.41;;;22.77;71.38
32237;BME280;18726;44.732;10.550;2023-04-22T05:50:20;101076.00;;;23.45;69.03
32237;BME280;18726;44.732;10.550;2023-04-22T05:53:30;101085.28;;;24.17;66.88
32237;BME280;18726;44.732;10.550;2023-04-22T05:56:36;101072.28;;;23.75;64.65
32237;BME280;18726;44.732;10.550;2023-04-22T05:59:39;101082.31;;;24.61;63.15
32237;BME280;18726;44.732;10.550;2023-04-22T06:02:43;101079.94;;;24.95;62.71
32237;BME280;18726;44.732;10.550;2023-04-22T06:05:47;101079.31;;;25.49;59.65
32237;BME280;18726;44.732;10.550;2023-04-22T06:08:50;101089.81;;;26.41;57.83
32237;BME280;18726;44.732;10.550;2023-04-22T06:11:53;101089.94;;;27.44;53.35
32237;BME280;18726;44.732;10.550;2023-04-22T06:14:57;101089.31;;;28.28;49.77
32237;BME280;18726;44.732;10.550;2023-04-22T06:18:01;101090.44;;;27.43;49.18
32237;BME280;18726;44.732;10.550;2023-04-22T06:21:04;101103.38;;;27.02;51.25
32237;BME280;18726;44.732;10.550;2023-04-22T06:24:08;101096.84;;;28.18;50.55
32237;BME280;18726;44.732;10.550;2023-04-22T06:27:12;101098.91;;;29.25;46.52
32237;BME280;18726;44.732;10.550;2023-04-22T06:30:16;101096.41;;;29.09;46.95
32237;BME280;18726;44.732;10.550;2023-04-22T06:33:19;101100.31;;;29.30;47.23
32237;BME280;18726;44.732;10.550;2023-04-22T06:36:22;101096.31;;;28.72;47.58
32237;BME280;18726;44.732;10.550;2023-04-22T06:39:33;101099.34;;;28.96;45.58
32237;BME280;18726;44.732;10.550;2023-04-22T06:42:44;101104.84;;;30.75;43.17
32237;BME280;18726;44.732;10.550;2023-04-22T06:46:13;101101.72;;;31.69;42.07
32237;BME280;18726;44.732;10.550;2023-04-22T06:49:36;101098.72;;;31.10;40.31
32237;BME280;18726;44.732;10.550;2023-04-22T06:53:00;101102.03;;;29.27;45.41
32237;BME280;18726;44.732;10.550;2023-04-22T06:56:04;101097.34;;;30.81;43.45
32237;BME280;18726;44.732;10.550;2023-04-22T06:59:07;101105.28;;;32.13;40.03
32237;BME280;18726;44.732;10.550;2023-04-22T07:02:11;101106.88;;;33.86;37.50
32237;BME280;18726;44.732;10.550;2023-04-22T07:05:16;101101.44;;;35.31;35.41
32237;BME280;18726;44.732;10.550;2023-04-22T07:08:20;101101.03;;;35.77;34.30
32237;BME280;18726;44.732;10.550;2023-04-22T07:11:23;101093.69;;;36.99;33.91
32237;BME280;18726;44.732;10.550;2023-04-22T07:14:50;101089.06;;;37.01;33.33
32237;BME280;18726;44.732;10.550;2023-04-22T07:17:53;101091.63;;;36.99;32.01
32237;BME280;18726;44.732;10.550;2023-04-22T07:20:56;101083.81;;;37.69;31.37
32237;BME280;18726;44.732;10.550;2023-04-22T07:23:59;101087.94;;;37.73;31.87
32237;BME280;18726;44.732;10.550;2023-04-22T07:27:03;101072.50;;;38.29;31.21
32237;BME280;18726;44.732;10.550;2023-04-22T07:30:06;101079.59;;;39.65;28.96
32237;BME280;18726;44.732;10.550;2023-04-22T07:33:10;101079.94;;;40.52;28.26
32237;BME280;18726;44.732;10.550;2023-04-22T07:36:14;101072.56;;;39.53;28.32
32237;BME280;18726;44.732;10.550;2023-04-22T07:39:19;101072.81;;;40.58;27.54
32237;BME280;18726;44.732;10.550;2023-04-22T07:42:22;101064.44;;;41.13;27.81
32237;BME280;18726;44.732;10.550;2023-04-22T07:45:25;101057.56;;;42.26;26.55
32237;BME280;18726;44.732;10.550;2023-04-22T07:48:29;101064.50;;;42.38;26.02
32237;BME280;18726;44.732;10.550;2023-04-22T07:51:32;101060.63;;;43.43;25.02
32237;BME280;18726;44.732;10.550;2023-04-22T07:54:35;101061.00;;;42.89;25.11
32237;BME280;18726;44.732;10.550;2023-04-22T07:57:39;101064.44;;;41.47;26.11
32237;BME280;18726;44.732;10.550;2023-04-22T08:00:42;101058.66;;;42.23;25.04
32237;BME280;18726;44.732;10.550;2023-04-22T08:03:46;101058.06;;;42.45;25.45
32237;BME280;18726;44.732;10.550;2023-04-22T08:06:49;101057.56;;;42.26;26.21
32237;BME280;18726;44.732;10.550;2023-04-22T08:09:53;101055.78;;;41.73;25.54
32237;BME280;18726;44.732;10.550;2023-04-22T08:12:59;101055.34;;;41.90;25.94
32237;BME280;18726;44.732;10.550;2023-04-22T08:16:02;101055.94;;;41.68;26.31
32237;BME280;18726;44.732;10.550;2023-04-22T08:19:06;101054.19;;;42.63;25.96
32237;BME280;18726;44.732;10.550;2023-04-22T08:22:09;101056.78;;;41.76;25.73
32237;BME280;18726;44.732;10.550;2023-04-22T08:25:15;101051.13;;;41.84;26.01
32237;BME280;18726;44.732;10.550;2023-04-22T08:28:19;101050.75;;;41.45;25.42
32237;BME280;18726;44.732;10.550;2023-04-22T08:31:22;101056.34;;;41.72;25.23
32237;BME280;18726;44.732;10.550;2023-04-22T08:34:26;101051.78;;;40.88;26.43
32237;BME280;18726;44.732;10.550;2023-04-22T08:37:31;101048.28;;;40.42;26.92
32237;BME280;18726;44.732;10.550;2023-04-22T08:40:34;101049.13;;;39.46;27.83
32237;BME280;18726;44.732;10.550;2023-04-22T08:43:37;101032.53;;;39.13;28.81
32237;BME280;18726;44.732;10.550;2023-04-22T08:46:42;101035.13;;;38.49;28.82
32237;BME280;18726;44.732;10.550;2023-04-22T08:49:49;101029.34;;;38.11;29.89
32237;BME280;18726;44.732;10.550;2023-04-22T08:52:53;101018.34;;;37.97;30.06
32237;BME280;18726;44.732;10.550;2023-04-22T08:55:57;101014.81;;;37.20;31.36
32237;BME280;18726;44.732;10.550;2023-04-22T08:59:00;101010.31;;;36.94;32.69
32237;BME280;18726;44.732;10.550;2023-04-22T09:02:04;101006.84;;;36.55;32.71
32237;BME280;18726;44.732;10.550;2023-04-22T09:05:08;101008.63;;;36.63;32.29
32237;BME280;18726;44.732;10.550;2023-04-22T09:08:12;101011.13;;;36.72;33.02
32237;BME280;18726;44.732;10.550;2023-04-22T09:11:15;101005.22;;;36.76;33.15
32237;BME280;18726;44.732;10.550;2023-04-22T09:14:19;101003.84;;;36.30;33.39
32237;BME280;18726;44.732;10.550;2023-04-22T09:17:42;100993.00;;;36.23;33.84
32237;BME280;18726;44.732;10.550;2023-04-22T09:20:53;100990.25;;;35.95;32.87
32237;BME280;18726;44.732;10.550;2023-04-22T09:23:57;100981.50;;;35.93;33.67
32237;BME280;18726;44.732;10.550;2023-04-22T09:27:02;100988.97;;;36.02;33.57
32237;BME280;18726;44.732;10.550;2023-04-22T09:30:06;100980.22;;;35.89;35.03
32237;BME280;18726;44.732;10.550;2023-04-22T09:33:10;100976.38;;;35.86;35.48
32237;BME280;18726;44.732;10.550;2023-04-22T09:36:16;100968.59;;;35.25;33.37
32237;BME280;18726;44.732;10.550;2023-04-22T09:39:19;100965.97;;;34.82;36.51
32237;BME280;18726;44.732;10.550;2023-04-22T09:42:22;100970.50;;;34.74;37.20
32237;BME280;18726;44.732;10.550;2023-04-22T09:45:39;100973.44;;;33.37;36.78
32237;BME280;18726;44.732;10.550;2023-04-22T09:48:43;100968.28;;;33.93;37.02
32237;BME280;18726;44.732;10.550;2023-04-22T09:51:49;100966.59;;;34.12;37.07
32237;BME280;18726;44.732;10.550;2023-04-22T09:54:57;100969.91;;;33.42;35.07
32237;BME280;18726;44.732;10.550;2023-04-22T09:58:07;100967.75;;;33.32;37.65
32237;BME280;18726;44.732;10.550;2023-04-22T10:01:10;100970.84;;;33.34;38.26
32237;BME280;18726;44.732;10.550;2023-04-22T10:04:14;100972.59;;;33.31;39.66
32237;BME280;18726;44.732;10.550;2023-04-22T10:07:18;100956.47;;;33.32;39.91
32237;BME280;18726;44.732;10.550;2023-04-22T10:10:22;100962.19;;;32.30;37.19
32237;BME280;18726;44.732;10.550;2023-04-22T10:13:26;100960.81;;;31.91;40.93
32237;BME280;18726;44.732;10.550;2023-04-22T10:16:30;100956.56;;;30.11;40.21
32237;BME280;18726;44.732;10.550;2023-04-22T10:19:33;100944.06;;;30.21;45.18
32237;BME280;18726;44.732;10.550;2023-04-22T10:22:38;100934.66;;;31.11;44.06
32237;BME280;18726;44.732;10.550;2023-04-22T10:25:41;100938.38;;;31.76;40.27
32237;BME280;18726;44.732;10.550;2023-04-22T10:28:45;100947.28;;;32.24;41.05
32237;BME280;18726;44.732;10.550;2023-04-22T10:31:55;100944.06;;;32.16;41.82
32237;BME280;18726;44.732;10.550;2023-04-22T10:35:06;100935.91;;;32.33;40.89
32237;BME280;18726;44.732;10.550;2023-04-22T10:38:10;100937.06;;;32.67;42.17
32237;BME280;18726;44.732;10.550;2023-04-22T10:41:13;100925.41;;;33.26;42.08
32237;BME280;18726;44.732;10.550;2023-04-22T10:44:17;100915.03;;;31.40;39.07
32237;BME280;18726;44.732;10.550;2023-04-22T10:50:30;100912.16;;;29.86;46.73
32237;BME280;18726;44.732;10.550;2023-04-22T10:53:34;100911.44;;;31.10;42.47
32237;BME280;18726;44.732;10.550;2023-04-22T10:56:58;100904.00;;;32.01;43.29
32237;BME280;18726;44.732;10.550;2023-04-22T11:00:03;100904.09;;;31.72;43.02
32237;BME280;18726;44.732;10.550;2023-04-22T11:03:18;100910.34;;;30.07;41.27
32237;BME280;18726;44.732;10.550;2023-04-22T11:06:27;100903.31;;;27.77;44.89
32237;BME280;18726;44.732;10.550;2023-04-22T11:09:32;100898.75;;;27.31;45.51
32237;BME280;18726;44.732;10.550;2023-04-22T11:15:43;100896.84;;;28.48;50.35
32237;BME280;18726;44.732;10.550;2023-04-22T11:18:47;100895.69;;;29.79;49.17
32237;BME280;18726;44.732;10.550;2023-04-22T11:21:50;100896.13;;;30.97;45.30
32237;BME280;18726;44.732;10.550;2023-04-22T11:24:59;100893.53;;;31.67;43.90
32237;BME280;18726;44.732;10.550;2023-04-22T11:28:02;100890.44;;;32.00;41.54
32237;BME280;18726;44.732;10.550;2023-04-22T11:31:06;100889.63;;;29.29;44.30
32237;BME280;18726;44.732;10.550;2023-04-22T11:34:11;100879.53;;;26.33;50.75
32237;BME280;18726;44.732;10.550;2023-04-22T11:37:17;100880.16;;;27.06;54.79
32237;BME280;18726;44.732;10.550;2023-04-22T11:40:26;100875.25;;;26.53;50.27
32237;BME280;18726;44.732;10.550;2023-04-22T11:43:29;100877.25;;;28.20;54.37
32237;BME280;18726;44.732;10.550;2023-04-22T11:46:33;100874.63;;;28.99;51.87
32237;BME280;18726;44.732;10.550;2023-04-22T11:49:53;100872.94;;;29.86;48.31
32237;BME280;18726;44.732;10.550;2023-04-22T11:52:59;100865.78;;;27.38;49.05
32237;BME280;18726;44.732;10.550;2023-04-22T11:56:06;100869.59;;;26.44;51.75
32237;BME280;18726;44.732;10.550;2023-04-22T11:59:09;100863.91;;;26.91;58.49
32237;BME280;18726;44.732;10.550;2023-04-22T12:02:12;100865.97;;;27.22;51.01
32237;BME280;18726;44.732;10.550;2023-04-22T12:05:15;100870.97;;;27.98;49.70
32237;BME280;18726;44.732;10.550;2023-04-22T12:08:20;100865.34;;;27.18;50.16
32237;BME280;18726;44.732;10.550;2023-04-22T12:11:24;100858.72;;;27.24;54.48
32237;BME280;18726;44.732;10.550;2023-04-22T12:14:31;100865.78;;;28.37;54.36
32237;BME280;18726;44.732;10.550;2023-04-22T12:17:34;100859.69;;;29.11;50.46
32237;BME280;18726;44.732;10.550;2023-04-22T12:20:38;100868.88;;;29.03;46.02
32237;BME280;18726;44.732;10.550;2023-04-22T12:23:43;100863.31;;;27.49;47.65
32237;BME280;18726;44.732;10.550;2023-04-22T12:26:46;100859.63;;;27.21;49.43
32237;BME280;18726;44.732;10.550;2023-04-22T12:29:53;100853.69;;;27.81;51.24
32237;BME280;18726;44.732;10.550;2023-04-22T12:32:56;100852.69;;;28.15;53.48
32237;BME280;18726;44.732;10.550;2023-04-22T12:36:00;100843.88;;;28.72;54.91
32237;BME280;18726;44.732;10.550;2023-04-22T12:39:03;100843.31;;;29.19;48.15
32237;BME280;18726;44.732;10.550;2023-04-22T12:42:07;100849.91;;;28.88;48.22
32237;BME280;18726;44.732;10.550;2023-04-22T12:45:10;100849.50;;;29.41;50.82
32237;BME280;18726;44.732;10.550;2023-04-22T12:48:13;100837.44;;;29.59;47.25
32237;BME280;18726;44.732;10.550;2023-04-22T12:51:17;100834.28;;;29.42;45.62
32237;BME280;18726;44.732;10.550;2023-04-22T12:54:20;100837.09;;;29.66;48.71
32237;BME280;18726;44.732;10.550;2023-04-22T12:57:24;100836.56;;;29.77;47.08
32237;BME280;18726;44.732;10.550;2023-04-22T13:00:27;100833.38;;;29.93;47.30
32237;BME280;18726;44.732;10.550;2023-04-22T13:03:31;100828.13;;;29.86;48.13
32237;BME280;18726;44.732;10.550;2023-04-22T13:06:35;100822.34;;;29.89;49.89
32237;BME280;18726;44.732;10.550;2023-04-22T13:09:40;100821.75;;;29.85;48.28
32237;BME280;18726;44.732;10.550;2023-04-22T13:12:43;100812.50;;;29.94;48.01
32237;BME280;18726;44.732;10.550;2023-04-22T13:15:46;100817.16;;;29.40;45.04
32237;BME280;18726;44.732;10.550;2023-04-22T13:18:55;100802.41;;;27.97;48.44
32237;BME280;18726;44.732;10.550;2023-04-22T13:21:58;100807.72;;;28.22;50.09
32237;BME280;18726;44.732;10.550;2023-04-22T13:25:02;100799.31;;;27.15;47.66
32237;BME280;18726;44.732;10.550;2023-04-22T13:28:06;100791.13;;;26.11;50.63
32237;BME280;18726;44.732;10.550;2023-04-22T13:31:09;100785.69;;;26.30;51.86
32237;BME280;18726;44.732;10.550;2023-04-22T13:34:12;100787.47;;;26.02;51.97
32237;BME280;18726;44.732;10.550;2023-04-22T13:37:17;100776.75;;;25.53;56.75
32237;BME280;18726;44.732;10.550;2023-04-22T13:40:22;100778.06;;;25.74;59.20
32237;BME280;18726;44.732;10.550;2023-04-22T13:43:26;100773.72;;;26.20;56.28
32237;BME280;18726;44.732;10.550;2023-04-22T13:46:29;100768.75;;;26.58;52.57
32237;BME280;18726;44.732;10.550;2023-04-22T13:49:33;100761.97;;;25.69;56.91
32237;BME280;18726;44.732;10.550;2023-04-22T13:52:36;100750.75;;;25.09;61.46
32237;BME280;18726;44.732;10.550;2023-04-22T13:55:39;100762.06;;;25.52;62.80
32237;BME280;18726;44.732;10.550;2023-04-22T13:58:45;100755.78;;;24.72;64.98
32237;BME280;18726;44.732;10.550;2023-04-22T14:01:49;100756.28;;;24.26;64.08
32237;BME280;18726;44.732;10.550;2023-04-22T14:04:52;100749.19;;;25.20;64.13
32237;BME280;18726;44.732;10.550;2023-04-22T14:07:56;100749.53;;;25.95;60.32
32237;BME280;18726;44.732;10.550;2023-04-22T14:10:59;100741.66;;;26.59;61.15
32237;BME280;18726;44.732;10.550;2023-04-22T14:14:04;100744.91;;;26.79;56.84
32237;BME280;18726;44.732;10.550;2023-04-22T14:17:08;100747.09;;;25.97;54.54
32237;BME280;18726;44.732;10.550;2023-04-22T14:20:12;100736.78;;;25.72;58.54
32237;BME280;18726;44.732;10.550;2023-04-22T14:23:15;100745.09;;;25.85;55.91
32237;BME280;18726;44.732;10.550;2023-04-22T14:26:19;100740.97;;;26.24;58.41
32237;BME280;18726;44.732;10.550;2023-04-22T14:29:23;100744.47;;;26.37;54.79
32237;BME280;18726;44.732;10.550;2023-04-22T14:32:26;100730.94;;;25.32;58.52
32237;BME280;18726;44.732;10.550;2023-04-22T14:35:32;100740.28;;;25.13;59.68
32237;BME280;18726;44.732;10.550;2023-04-22T14:38:35;100734.72;;;25.13;61.50
32237;BME280;18726;44.732;10.550;2023-04-22T14:41:39;100733.06;;;25.28;59.05
32237;BME280;18726;44.732;10.550;2023-04-22T14:44:43;100731.22;;;25.60;62.65
32237;BME280;18726;44.732;10.550;2023-04-22T14:47:47;100731.28;;;25.94;61.77
32237;BME280;18726;44.732;10.550;2023-04-22T14:50:52;100724.97;;;26.37;60.17
32237;BME280;18726;44.732;10.550;2023-04-22T14:53:57;100725.91;;;26.65;57.34
32237;BME280;18726;44.732;10.550;2023-04-22T14:57:00;100726.31;;;26.85;56.58
32237;BME280;18726;44.732;10.550;2023-04-22T15:00:04;100732.66;;;27.08;55.55
32237;BME280;18726;44.732;10.550;2023-04-22T15:03:07;100717.97;;;27.16;54.99
32237;BME280;18726;44.732;10.550;2023-04-22T15:06:11;100719.97;;;27.16;56.19
32237;BME280;18726;44.732;10.550;2023-04-22T15:09:14;100720.53;;;26.05;60.07
32237;BME280;18726;44.732;10.550;2023-04-22T15:12:18;100714.88;;;25.62;60.49
32237;BME280;18726;44.732;10.550;2023-04-22T15:15:21;100706.22;;;24.83;62.56
32237;BME280;18726;44.732;10.550;2023-04-22T15:18:25;100705.25;;;25.03;63.17
32237;BME280;18726;44.732;10.550;2023-04-22T15:21:28;100699.09;;;25.46;61.43
32237;BME280;18726;44.732;10.550;2023-04-22T15:24:31;100698.13;;;25.87;61.81
32237;BME280;18726;44.732;10.550;2023-04-22T15:27:36;100702.00;;;24.91;59.19
32237;BME280;18726;44.732;10.550;2023-04-22T15:30:39;100703.47;;;25.21;61.31
32237;BME280;18726;44.732;10.550;2023-04-22T15:33:43;100707.75;;;25.61;60.23
32237;BME280;18726;44.732;10.550;2023-04-22T15:36:46;100715.38;;;25.35;57.71
32237;BME280;18726;44.732;10.550;2023-04-22T15:39:50;100708.63;;;23.98;64.82
32237;BME280;18726;44.732;10.550;2023-04-22T15:42:53;100712.72;;;24.39;63.86
32237;BME280;18726;44.732;10.550;2023-04-22T15:45:57;100706.97;;;24.58;61.61
32237;BME280;18726;44.732;10.550;2023-04-22T15:49:01;100709.00;;;24.83;61.19
32237;BME280;18726;44.732;10.550;2023-04-22T15:52:05;100704.28;;;25.09;62.31
32237;BME280;18726;44.732;10.550;2023-04-22T15:55:09;100712.13;;;25.36;61.22